createdAt,value
2018-05-06T00:01:37.970Z,99137
2018-05-06T00:04:06.021Z,99136
2018-05-06T00:06:34.147Z,99137
2018-05-06T00:09:03.089Z,99137
2018-05-06T00:11:31.188Z,99135
2018-05-06T00:13:59.736Z,99136
2018-05-06T00:16:27.792Z,99142
2018-05-06T00:18:55.885Z,99139
2018-05-06T00:21:24.089Z,99137
2018-05-06T00:23:52.163Z,99139
2018-05-06T00:26:21.020Z,99139
2018-05-06T00:28:49.412Z,99141
2018-05-06T00:31:17.461Z,99138
2018-05-06T00:33:45.540Z,99139
2018-05-06T00:36:13.819Z,99142
2018-05-06T00:38:41.883Z,99143
2018-05-06T00:41:09.936Z,99143
2018-05-06T00:43:38.033Z,99145
2018-05-06T00:46:06.101Z,99144
2018-05-06T00:48:34.190Z,99145
2018-05-06T00:51:02.571Z,99143
2018-05-06T00:53:30.609Z,99144
2018-05-06T00:55:58.681Z,99142
2018-05-06T00:58:26.985Z,99136
2018-05-06T01:00:55.057Z,99140
2018-05-06T01:03:23.129Z,99139
2018-05-06T01:05:51.508Z,99137
2018-05-06T01:08:19.577Z,99145
2018-05-06T01:10:47.621Z,99138
2018-05-06T01:13:15.721Z,99142
2018-05-06T01:15:43.764Z,99140
2018-05-06T01:18:11.853Z,99141
2018-05-06T01:20:40.245Z,99141
2018-05-06T01:23:08.504Z,99144
2018-05-06T01:25:36.593Z,99144
2018-05-06T01:28:04.701Z,99148
2018-05-06T01:30:33.524Z,99151
2018-05-06T01:33:01.582Z,99155
2018-05-06T01:35:30.338Z,99152
2018-05-06T01:37:59.157Z,99149
2018-05-06T01:40:27.234Z,99150
2018-05-06T01:42:55.520Z,99152
2018-05-06T01:45:23.606Z,99155
2018-05-06T01:47:51.956Z,99152
2018-05-06T01:50:20.069Z,99157
2018-05-06T01:52:48.120Z,99156
2018-05-06T01:55:16.173Z,99163
2018-05-06T01:57:44.462Z,99160
2018-05-06T02:00:12.545Z,99165
2018-05-06T02:02:40.642Z,99168
2018-05-06T02:05:09.229Z,99167
2018-05-06T02:07:37.269Z,99167
2018-05-06T02:10:05.328Z,99168
2018-05-06T02:12:33.441Z,99171
2018-05-06T02:15:01.486Z,99170
2018-05-06T02:17:29.544Z,99166
2018-05-06T02:19:57.660Z,99167
2018-05-06T02:22:25.696Z,99168
2018-05-06T02:24:54.372Z,99168
2018-05-06T02:27:22.457Z,99168
2018-05-06T02:29:50.557Z,99163
2018-05-06T02:32:19.034Z,99164
2018-05-06T02:34:47.099Z,99170
2018-05-06T02:37:15.152Z,99168
2018-05-06T02:39:43.559Z,99175
2018-05-06T02:42:11.601Z,99178
2018-05-06T02:44:39.661Z,99177
2018-05-06T02:47:07.977Z,99185
2018-05-06T02:49:36.075Z,99185
2018-05-06T02:52:04.121Z,99183
2018-05-06T02:54:33.013Z,99181
2018-05-06T02:57:01.081Z,99186
2018-05-06T02:59:29.124Z,99179
2018-05-06T03:01:57.458Z,99186
2018-05-06T03:04:25.529Z,99183
2018-05-06T03:06:53.600Z,99183
2018-05-06T03:09:22.053Z,99181
2018-05-06T03:11:50.117Z,99183
2018-05-06T03:14:19.177Z,99185
2018-05-06T03:16:47.479Z,99181
2018-05-06T03:19:15.921Z,99184
2018-05-06T03:21:43.997Z,99187
2018-05-06T03:24:12.069Z,99186
2018-05-06T03:26:40.629Z,99186
2018-05-06T03:29:09.449Z,99185
2018-05-06T03:31:37.829Z,99182
2018-05-06T03:34:05.921Z,99181
2018-05-06T03:36:34.009Z,99180
2018-05-06T03:39:02.552Z,99189
2018-05-06T03:41:30.650Z,99187
2018-05-06T03:43:58.717Z,99186
2018-05-06T03:46:26.813Z,99189
2018-05-06T03:48:54.872Z,99194
2018-05-06T03:51:22.961Z,99197
2018-05-06T03:53:52.257Z,99198
2018-05-06T03:56:20.325Z,99205
2018-05-06T03:58:48.371Z,99204
2018-05-06T04:01:16.768Z,99209
2018-05-06T04:03:44.845Z,99206
2018-05-06T04:06:12.890Z,99203
2018-05-06T04:08:41.913Z,99207
2018-05-06T04:11:09.957Z,99207
2018-05-06T04:13:38.058Z,99211
2018-05-06T04:16:06.422Z,99208
2018-05-06T04:18:34.500Z,99209
2018-05-06T04:21:02.551Z,99203
2018-05-06T04:23:30.616Z,99201
2018-05-06T04:25:58.693Z,99202
2018-05-06T04:28:26.790Z,99202
2018-05-06T04:30:55.275Z,99201
2018-05-06T04:33:23.620Z,99207
2018-05-06T04:35:51.688Z,99207
2018-05-06T04:38:19.788Z,99215
2018-05-06T04:40:47.854Z,99211
2018-05-06T04:43:15.908Z,99212
2018-05-06T04:45:44.013Z,99214
2018-05-06T04:48:12.869Z,99210
2018-05-06T04:50:40.964Z,99217
2018-05-06T04:53:09.016Z,99214
2018-05-06T04:55:37.089Z,99216
2018-05-06T04:58:05.232Z,99222
2018-05-06T05:00:33.662Z,99222
2018-05-06T05:03:01.704Z,99215
2018-05-06T05:05:29.809Z,99212
2018-05-06T05:07:58.979Z,99210
2018-05-06T05:10:27.220Z,99215
2018-05-06T05:12:55.297Z,99215
2018-05-06T05:15:23.382Z,99219
2018-05-06T05:17:51.471Z,99215
2018-05-06T05:20:19.561Z,99217
2018-05-06T05:22:47.713Z,99222
2018-05-06T05:25:15.786Z,99225
2018-05-06T05:27:44.497Z,99221
2018-05-06T05:30:13.573Z,99224
2018-05-06T05:32:41.659Z,99216
2018-05-06T05:35:09.745Z,99218
2018-05-06T05:37:38.609Z,99214
2018-05-06T05:40:06.692Z,99216
2018-05-06T05:42:34.764Z,99208
2018-05-06T05:45:02.861Z,99207
2018-05-06T05:47:31.751Z,99210
2018-05-06T05:50:00.609Z,99209
2018-05-06T05:52:28.997Z,99206
2018-05-06T05:54:57.046Z,99202
2018-05-06T05:57:26.040Z,99209
2018-05-06T05:59:54.124Z,99216
2018-05-06T06:02:22.180Z,99210
2018-05-06T06:04:50.274Z,99209
2018-05-06T06:07:18.662Z,99215
2018-05-06T06:09:47.599Z,99208
2018-05-06T06:12:15.898Z,99209
2018-05-06T06:14:44.309Z,99208
2018-05-06T06:17:13.145Z,99212
2018-05-06T06:19:41.270Z,99215
2018-05-06T06:22:10.156Z,99212
2018-05-06T06:24:38.317Z,99215
2018-05-06T06:27:07.066Z,99209
2018-05-06T06:29:35.145Z,99206
2018-05-06T06:32:03.265Z,99199
2018-05-06T06:34:32.125Z,99205
2018-05-06T06:37:00.654Z,99209
2018-05-06T06:39:28.677Z,99194
2018-05-06T06:41:56.752Z,99204
2018-05-06T06:44:24.812Z,99204
2018-05-06T06:46:52.929Z,99209
2018-05-06T06:49:21.768Z,99212
2018-05-06T06:51:49.853Z,99208
2018-05-06T06:54:17.926Z,99207
2018-05-06T06:56:45.973Z,99209
2018-05-06T06:59:14.273Z,99210
2018-05-06T07:01:42.366Z,99209
2018-05-06T07:04:10.437Z,99207
2018-05-06T07:06:38.485Z,99195
2018-05-06T07:09:06.543Z,99198
2018-05-06T07:11:34.628Z,99190
2018-05-06T07:14:03.221Z,99183
2018-05-06T07:16:31.285Z,99177
2018-05-06T07:18:59.346Z,99172
2018-05-06T07:21:27.537Z,99170
2018-05-06T07:23:55.621Z,99166
2018-05-06T07:26:23.797Z,99171
2018-05-06T07:28:52.660Z,99166
2018-05-06T07:31:20.738Z,99159
2018-05-06T07:33:48.800Z,99153
2018-05-06T07:36:18.224Z,99154
2018-05-06T07:38:46.276Z,99146
2018-05-06T07:41:14.374Z,99153
2018-05-06T07:43:42.501Z,99170
2018-05-06T07:46:10.605Z,99169
2018-05-06T07:48:38.694Z,99159
2018-05-06T07:51:07.881Z,99159
2018-05-06T07:53:35.928Z,99160
2018-05-06T07:56:04.020Z,99158
2018-05-06T07:58:32.109Z,99161
2018-05-06T08:01:00.956Z,99171
2018-05-06T08:03:29.053Z,99166
2018-05-06T08:05:57.333Z,99159
2018-05-06T08:08:25.368Z,99171
2018-05-06T08:10:53.497Z,99161
2018-05-06T08:13:22.361Z,99151
2018-05-06T08:15:50.594Z,99151
2018-05-06T08:18:18.685Z,99148
2018-05-06T08:20:47.088Z,99151
2018-05-06T08:23:16.041Z,99156
2018-05-06T08:25:44.133Z,99136
2018-05-06T08:28:12.241Z,99149
2018-05-06T08:30:41.097Z,99146
2018-05-06T08:33:09.185Z,99149
2018-05-06T08:35:37.561Z,99142
2018-05-06T08:38:05.604Z,99131
2018-05-06T08:40:33.797Z,99137
2018-05-06T08:43:02.598Z,99122
2018-05-06T08:45:30.652Z,99126
2018-05-06T08:47:58.741Z,99120
2018-05-06T08:50:27.116Z,99123
2018-05-06T08:52:55.172Z,99128
2018-05-06T08:55:23.261Z,99116
2018-05-06T08:57:51.637Z,99107
2018-05-06T09:00:19.709Z,99117
2018-05-06T09:02:47.765Z,99112
2018-05-06T09:05:16.137Z,99116
2018-05-06T09:07:44.225Z,99109
2018-05-06T09:10:12.305Z,99112
2018-05-06T09:12:40.389Z,99107
2018-05-06T09:15:08.461Z,99101
2018-05-06T09:17:36.503Z,99100
2018-05-06T09:20:04.601Z,99090
2018-05-06T09:22:32.672Z,99100
2018-05-06T09:25:00.745Z,99084
2018-05-06T09:27:30.634Z,99080
2018-05-06T09:29:59.515Z,99083
2018-05-06T09:32:27.568Z,99077
2018-05-06T09:34:55.652Z,99077
2018-05-06T09:37:23.733Z,99055
2018-05-06T09:39:51.796Z,99092
2018-05-06T09:42:20.173Z,99066
2018-05-06T09:44:48.971Z,99082
2018-05-06T09:47:17.041Z,99091
2018-05-06T09:49:45.540Z,99074
2018-05-06T09:52:13.585Z,99072
2018-05-06T09:54:41.641Z,99070
2018-05-06T09:57:10.019Z,99078
2018-05-06T09:59:38.090Z,99054
2018-05-06T10:02:06.162Z,99074
2018-05-06T10:04:34.581Z,99073
2018-05-06T10:07:02.652Z,99068
2018-05-06T10:09:30.708Z,99066
2018-05-06T10:11:58.801Z,99068
2018-05-06T10:14:27.115Z,99069
2018-05-06T10:16:55.932Z,99071
2018-05-06T10:19:24.005Z,99071
2018-05-06T10:21:52.165Z,99049
2018-05-06T10:24:20.297Z,99058
2018-05-06T10:26:48.320Z,99061
2018-05-06T10:29:16.385Z,99048
2018-05-06T10:31:44.477Z,99058
2018-05-06T10:34:12.844Z,99053
2018-05-06T10:36:40.909Z,99052
2018-05-06T10:39:08.973Z,99047
2018-05-06T10:41:37.088Z,99048
2018-05-06T10:44:05.194Z,99036
2018-05-06T10:46:33.463Z,99044
2018-05-06T10:49:02.305Z,99033
2018-05-06T10:51:30.381Z,99031
2018-05-06T10:53:58.436Z,99044
2018-05-06T10:56:26.816Z,99036
2018-05-06T10:58:54.901Z,99037
2018-05-06T11:01:22.990Z,99026
2018-05-06T11:03:51.957Z,99027
2018-05-06T11:06:20.013Z,99025
2018-05-06T11:08:48.064Z,99026
2018-05-06T11:11:16.313Z,99019
2018-05-06T11:13:44.435Z,99025
2018-05-06T11:16:12.517Z,99027
2018-05-06T11:18:40.782Z,99011
2018-05-06T11:21:08.857Z,99011
2018-05-06T11:23:36.896Z,99007
2018-05-06T11:26:05.255Z,99012
2018-05-06T11:28:33.678Z,99010
2018-05-06T11:31:01.711Z,99015
2018-05-06T11:33:30.548Z,99001
2018-05-06T11:35:58.669Z,99012
2018-05-06T11:38:27.503Z,99006
2018-05-06T11:40:55.776Z,99004
2018-05-06T11:43:23.849Z,98999
2018-05-06T11:45:51.924Z,99008
2018-05-06T11:48:20.039Z,99001
2018-05-06T11:50:48.090Z,98996
2018-05-06T11:53:16.145Z,98983
2018-05-06T11:55:44.566Z,98991
2018-05-06T11:58:12.604Z,98986
2018-05-06T12:00:40.986Z,98983
2018-05-06T12:03:09.590Z,98972
2018-05-06T12:05:37.661Z,98967
2018-05-06T12:08:07.251Z,98952
2018-05-06T12:10:35.604Z,98971
2018-05-06T12:13:03.672Z,98968
2018-05-06T12:15:31.793Z,98951
2018-05-06T12:18:00.165Z,98977
2018-05-06T12:20:28.228Z,98969
2018-05-06T12:22:56.299Z,98974
2018-05-06T12:25:24.681Z,98962
2018-05-06T12:27:53.125Z,98971
2018-05-06T12:30:21.200Z,98945
2018-05-06T12:32:49.268Z,98960
2018-05-06T12:35:17.365Z,98963
2018-05-06T12:37:45.477Z,98956
2018-05-06T12:40:14.305Z,98980
2018-05-06T12:42:42.371Z,98962
2018-05-06T12:45:10.447Z,98960
2018-05-06T12:47:38.888Z,98954
2018-05-06T12:50:08.231Z,98937
2018-05-06T12:52:36.309Z,98943
2018-05-06T12:55:04.425Z,98943
2018-05-06T12:57:32.472Z,98952
2018-05-06T13:00:00.569Z,98953
2018-05-06T13:02:28.936Z,98952
2018-05-06T13:04:56.990Z,98927
2018-05-06T13:07:25.679Z,98937
2018-05-06T13:09:54.362Z,98929
2018-05-06T13:12:23.177Z,98935
2018-05-06T13:14:51.229Z,98928
2018-05-06T13:17:19.321Z,98937
2018-05-06T13:19:47.672Z,98875
2018-05-06T13:22:15.774Z,98914
2018-05-06T13:24:44.634Z,98920
2018-05-06T13:27:12.705Z,98916
2018-05-06T13:29:41.796Z,98907
2018-05-06T13:32:09.866Z,98903
2018-05-06T13:34:38.890Z,98912
2018-05-06T13:37:06.977Z,98901
2018-05-06T13:39:35.796Z,98897
2018-05-06T13:42:04.232Z,98902
2018-05-06T13:44:33.024Z,98891
2018-05-06T13:47:01.881Z,98883
2018-05-06T13:49:29.981Z,98883
2018-05-06T13:51:59.384Z,98874
2018-05-06T13:54:28.225Z,98867
2018-05-06T13:56:56.290Z,98875
2018-05-06T13:59:24.700Z,98867
2018-05-06T14:01:52.762Z,98864
2018-05-06T14:04:20.869Z,98865
2018-05-06T14:06:48.928Z,98868
2018-05-06T14:09:17.061Z,98857
2018-05-06T14:11:45.901Z,98850
2018-05-06T14:14:14.372Z,98841
2018-05-06T14:16:42.761Z,98840
2018-05-06T14:19:11.593Z,98846
2018-05-06T14:21:39.690Z,98865
2018-05-06T14:24:07.769Z,98864
2018-05-06T14:26:35.829Z,98838
2018-05-06T14:29:04.236Z,98838
2018-05-06T14:31:32.313Z,98841
2018-05-06T14:34:00.352Z,98842
2018-05-06T14:36:28.957Z,98849
2018-05-06T14:38:57.040Z,98845
2018-05-06T14:41:25.891Z,98832
2018-05-06T14:43:53.989Z,98853
2018-05-06T14:46:22.052Z,98850
2018-05-06T14:48:50.121Z,98852
2018-05-06T14:51:18.501Z,98853
2018-05-06T14:53:46.781Z,98860
2018-05-06T14:56:14.881Z,98845
2018-05-06T14:58:43.328Z,98843
2018-05-06T15:01:11.433Z,98838
2018-05-06T15:03:40.372Z,98810
2018-05-06T15:06:08.773Z,98849
2018-05-06T15:08:37.796Z,98853
2018-05-06T15:11:06.633Z,98847
2018-05-06T15:13:35.592Z,98838
2018-05-06T15:16:03.911Z,98831
2018-05-06T15:18:33.020Z,98843
2018-05-06T15:21:01.125Z,98807
2018-05-06T15:23:29.981Z,98847
2018-05-06T15:25:58.391Z,98840
2018-05-06T15:28:27.225Z,98834
2018-05-06T15:30:56.176Z,98825
2018-05-06T15:33:24.912Z,98832
2018-05-06T15:35:53.001Z,98824
2018-05-06T15:38:21.081Z,98830
2018-05-06T15:40:49.461Z,98821
2018-05-06T15:43:17.512Z,98823
2018-05-06T15:45:45.592Z,98823
2018-05-06T15:48:13.873Z,98828
2018-05-06T15:50:41.951Z,98827
2018-05-06T15:53:09.993Z,98823
2018-05-06T15:55:39.043Z,98821
2018-05-06T15:58:07.934Z,98812
2018-05-06T16:00:36.809Z,98803
2018-05-06T16:03:05.597Z,98821
2018-05-06T16:05:33.676Z,98819
2018-05-06T16:08:02.520Z,98799
2018-05-06T16:10:30.940Z,98821
2018-05-06T16:12:59.080Z,98803
2018-05-06T16:15:27.881Z,98809
2018-05-06T16:17:56.244Z,98810
2018-05-06T16:20:25.041Z,98808
2018-05-06T16:22:53.732Z,98813
2018-05-06T16:25:21.796Z,98813
2018-05-06T16:27:49.897Z,98806
2018-05-06T16:30:18.780Z,98801
2018-05-06T16:32:46.830Z,98802
2018-05-06T16:35:14.905Z,98798
2018-05-06T16:37:42.977Z,98805
2018-05-06T16:40:11.073Z,98809
2018-05-06T16:42:39.941Z,98795
2018-05-06T16:45:09.150Z,98804
2018-05-06T16:47:37.321Z,98803
2018-05-06T16:50:05.365Z,98798
2018-05-06T16:52:33.464Z,98797
2018-05-06T16:55:02.225Z,98797
2018-05-06T16:57:31.156Z,98794
2018-05-06T17:00:00.137Z,98798
2018-05-06T17:02:28.210Z,98767
2018-05-06T17:04:56.964Z,98797
2018-05-06T17:07:25.049Z,98800
2018-05-06T17:09:53.725Z,98800
2018-05-06T17:12:22.644Z,98799
2018-05-06T17:14:50.709Z,98804
2018-05-06T17:17:18.772Z,98799
2018-05-06T17:19:47.168Z,98796
2018-05-06T17:22:16.025Z,98804
2018-05-06T17:24:44.147Z,98810
2018-05-06T17:27:12.977Z,98809
2018-05-06T17:29:41.381Z,98801
2018-05-06T17:32:10.360Z,98807
2018-05-06T17:34:38.457Z,98806
2018-05-06T17:37:06.503Z,98809
2018-05-06T17:39:34.917Z,98807
2018-05-06T17:42:02.982Z,98812
2018-05-06T17:44:31.873Z,98816
2018-05-06T17:46:59.924Z,98821
2018-05-06T17:49:28.014Z,98819
2018-05-06T17:51:56.401Z,98819
2018-05-06T17:54:24.444Z,98819
2018-05-06T17:56:52.545Z,98821
2018-05-06T17:59:20.929Z,98818
2018-05-06T18:01:48.997Z,98820
2018-05-06T18:04:17.057Z,98820
2018-05-06T18:06:45.626Z,98818
2018-05-06T18:09:14.405Z,98816
2018-05-06T18:11:42.485Z,98812
2018-05-06T18:14:10.576Z,98812
2018-05-06T18:16:38.777Z,98815
2018-05-06T18:19:07.596Z,98812
2018-05-06T18:21:35.664Z,98810
2018-05-06T18:24:03.761Z,98811
2018-05-06T18:26:31.914Z,98813
2018-05-06T18:29:00.066Z,98816
2018-05-06T18:31:29.088Z,98825
2018-05-06T18:33:57.784Z,98827
2018-05-06T18:36:26.768Z,98826
2018-05-06T18:38:54.857Z,98823
2018-05-06T18:41:22.909Z,98827
2018-05-06T18:43:51.038Z,98831
2018-05-06T18:46:20.692Z,98833
2018-05-06T18:48:49.409Z,98835
2018-05-06T18:51:17.449Z,98838
2018-05-06T18:53:46.126Z,98839
2018-05-06T18:56:14.213Z,98841
2018-05-06T18:58:42.293Z,98846
2018-05-06T19:01:11.070Z,98842
2018-05-06T19:03:39.132Z,98843
2018-05-06T19:06:07.225Z,98847
2018-05-06T19:08:35.621Z,98844
2018-05-06T19:11:03.668Z,98851
2018-05-06T19:13:33.601Z,98856
2018-05-06T19:16:01.673Z,98861
2018-05-06T19:18:30.464Z,98855
2018-05-06T19:20:58.553Z,98857
2018-05-06T19:23:27.408Z,98856
2018-05-06T19:25:55.517Z,98865
2018-05-06T19:28:24.343Z,98862
2018-05-06T19:30:52.414Z,98867
2018-05-06T19:33:20.836Z,98870
2018-05-06T19:35:50.155Z,98868
2018-05-06T19:38:18.177Z,98874
2018-05-06T19:40:46.245Z,98875
2018-05-06T19:43:14.629Z,98876
2018-05-06T19:45:42.668Z,98877
2018-05-06T19:48:10.765Z,98878
2018-05-06T19:50:39.041Z,98876
2018-05-06T19:53:07.112Z,98881
2018-05-06T19:55:35.205Z,98885
2018-05-06T19:58:03.682Z,98886
2018-05-06T20:00:31.751Z,98887
2018-05-06T20:02:59.804Z,98894
2018-05-06T20:05:28.105Z,98892
2018-05-06T20:07:56.213Z,98892
2018-05-06T20:10:25.053Z,98897
2018-05-06T20:12:53.949Z,98905
2018-05-06T20:15:23.593Z,98907
2018-05-06T20:17:53.260Z,98906
2018-05-06T20:20:22.149Z,98909
2018-05-06T20:22:51.157Z,98909
2018-05-06T20:25:20.077Z,98911
2018-05-06T20:27:48.149Z,98910
2018-05-06T20:30:16.189Z,98921
2018-05-06T20:32:44.496Z,98921
2018-05-06T20:35:13.353Z,98921
2018-05-06T20:37:41.457Z,98922
2018-05-06T20:40:09.807Z,98914
2018-05-06T20:42:37.909Z,98921
2018-05-06T20:45:05.980Z,98924
2018-05-06T20:47:35.269Z,98919
2018-05-06T20:50:03.353Z,98920
2018-05-06T20:52:31.405Z,98923
2018-05-06T20:54:59.789Z,98920
2018-05-06T20:57:28.781Z,98919
2018-05-06T20:59:57.874Z,98924
2018-05-06T21:02:25.948Z,98923
2018-05-06T21:04:54.809Z,98921
2018-05-06T21:07:22.868Z,98918
2018-05-06T21:09:50.979Z,98922
2018-05-06T21:12:19.056Z,98924
2018-05-06T21:14:47.116Z,98921
2018-05-06T21:17:15.169Z,98921
2018-05-06T21:19:43.277Z,98924
2018-05-06T21:22:12.157Z,98922
2018-05-06T21:24:40.241Z,98915
2018-05-06T21:27:08.290Z,98917
2018-05-06T21:29:36.425Z,98912
2018-05-06T21:32:05.220Z,98911
2018-05-06T21:34:33.326Z,98912
2018-05-06T21:37:01.702Z,98917
2018-05-06T21:39:29.775Z,98917
2018-05-06T21:41:57.845Z,98916
2018-05-06T21:44:26.141Z,98918
2018-05-06T21:46:54.297Z,98918
2018-05-06T21:49:22.362Z,98919
2018-05-06T21:51:50.762Z,98924
2018-05-06T21:54:18.836Z,98924
2018-05-06T21:56:46.905Z,98924
2018-05-06T21:59:15.600Z,98928
2018-05-06T22:01:43.681Z,98927
2018-05-06T22:04:12.532Z,98923
2018-05-06T22:06:40.860Z,98929
2018-05-06T22:09:09.680Z,98929
2018-05-06T22:11:37.784Z,98934
2018-05-06T22:14:05.861Z,98937
2018-05-06T22:16:34.704Z,98936
2018-05-06T22:19:02.778Z,98935
2018-05-06T22:21:31.207Z,98933
2018-05-06T22:23:59.426Z,98935
2018-05-06T22:26:27.476Z,98928
2018-05-06T22:28:55.568Z,98931
2018-05-06T22:31:23.643Z,98931
2018-05-06T22:33:51.711Z,98930
2018-05-06T22:36:20.021Z,98931
2018-05-06T22:38:48.084Z,98932
2018-05-06T22:41:17.204Z,98940
2018-05-06T22:43:45.301Z,98943
2018-05-06T22:46:14.181Z,98937
2018-05-06T22:48:43.273Z,98935
2018-05-06T22:51:12.445Z,98936
2018-05-06T22:53:40.525Z,98936
2018-05-06T22:56:08.597Z,98933
2018-05-06T22:58:38.204Z,98935
2018-05-06T23:01:07.242Z,98935
2018-05-06T23:03:36.077Z,98934
2018-05-06T23:06:04.148Z,98933
2018-05-06T23:08:32.207Z,98936
2018-05-06T23:11:00.297Z,98936
2018-05-06T23:13:28.653Z,98943
2018-05-06T23:15:56.727Z,98943
2018-05-06T23:18:24.797Z,98945
2018-05-06T23:20:52.916Z,98942
2018-05-06T23:23:20.949Z,98945
2018-05-06T23:25:49.008Z,98943
2018-05-06T23:28:17.089Z,98941
2018-05-06T23:30:45.193Z,98938
2018-05-06T23:33:13.261Z,98935
2018-05-06T23:35:41.617Z,98934
2018-05-06T23:38:09.888Z,98938
2018-05-06T23:40:38.605Z,98936
2018-05-06T23:43:06.880Z,98935
2018-05-06T23:45:34.961Z,98941
2018-05-06T23:48:03.796Z,98942
2018-05-06T23:50:31.872Z,98942
2018-05-06T23:52:59.962Z,98942
2018-05-06T23:55:28.033Z,98945
2018-05-06T23:57:57.263Z,98944
